sensor_id;sensor_type;location;lat;lon;timestamp;pressure;altitude;pressure_sealevel;temperature;humidity
80693;BME280;70055;39.436;-77.514;2023-06-26T00:06:51;98652.47;;;26.69;42.11
80693;BME280;70055;39.436;-77.514;2023-06-26T00:09:18;98656.18;;;23.60;45.72
80693;BME280;70055;39.436;-77.514;2023-06-26T00:11:47;98650.29;;;25.28;44.28
80693;BME280;70055;39.436;-77.514;2023-06-26T00:14:15;98651.01;;;26.43;45.74
80693;BME280;70055;39.436;-77.514;2023-06-26T00:16:43;98654.63;;;26.96;42.73
80693;BME280;70055;39.436;-77.514;2023-06-26T00:19:11;98657.03;;;26.80;43.01
80693;BME280;70055;39.436;-77.514;2023-06-26T00:21:39;98659.58;;;26.88;43.24
80693;BME280;70055;39.436;-77.514;2023-06-26T00:24:08;98654.64;;;26.52;43.96
80693;BME280;70055;39.436;-77.514;2023-06-26T00:26:35;98660.33;;;25.87;47.93
80693;BME280;70055;39.436;-77.514;2023-06-26T00:29:03;98669.13;;;25.41;49.49
80693;BME280;70055;39.436;-77.514;2023-06-26T00:31:33;98663.91;;;26.12;48.52
80693;BME280;70055;39.436;-77.514;2023-06-26T00:34:01;98660.73;;;25.96;47.22
80693;BME280;70055;39.436;-77.514;2023-06-26T00:36:29;98664.67;;;26.04;45.43
80693;BME280;70055;39.436;-77.514;2023-06-26T00:38:58;98670.06;;;26.05;44.94
80693;BME280;70055;39.436;-77.514;2023-06-26T00:41:26;98679.18;;;25.79;45.22
80693;BME280;70055;39.436;-77.514;2023-06-26T00:43:54;98685.72;;;25.86;45.69
80693;BME280;70055;39.436;-77.514;2023-06-26T00:46:23;98689.17;;;25.56;47.51
80693;BME280;70055;39.436;-77.514;2023-06-26T00:48:52;98691.80;;;25.44;48.27
80693;BME280;70055;39.436;-77.514;2023-06-26T00:51:22;98691.13;;;25.42;47.73
80693;BME280;70055;39.436;-77.514;2023-06-26T00:53:50;98687.84;;;25.78;47.96
80693;BME280;70055;39.436;-77.514;2023-06-26T00:56:20;98691.66;;;25.45;48.69
80693;BME280;70055;39.436;-77.514;2023-06-26T00:58:49;98695.37;;;25.39;47.85
80693;BME280;70055;39.436;-77.514;2023-06-26T01:01:18;98695.46;;;24.72;50.51
80693;BME280;70055;39.436;-77.514;2023-06-26T01:03:48;98694.59;;;24.14;50.34
80693;BME280;70055;39.436;-77.514;2023-06-26T01:06:19;98697.50;;;24.53;50.92
80693;BME280;70055;39.436;-77.514;2023-06-26T01:08:48;98705.89;;;24.26;50.72
80693;BME280;70055;39.436;-77.514;2023-06-26T01:11:17;98705.14;;;24.90;49.93
80693;BME280;70055;39.436;-77.514;2023-06-26T01:13:47;98703.51;;;25.44;48.62
80693;BME280;70055;39.436;-77.514;2023-06-26T01:16:15;98704.11;;;25.66;47.54
80693;BME280;70055;39.436;-77.514;2023-06-26T01:18:45;98706.44;;;25.22;46.79
80693;BME280;70055;39.436;-77.514;2023-06-26T01:21:14;98709.86;;;25.09;47.35
80693;BME280;70055;39.436;-77.514;2023-06-26T01:23:58;98708.60;;;25.56;47.42
80693;BME280;70055;39.436;-77.514;2023-06-26T01:26:30;98713.07;;;25.04;48.00
80693;BME280;70055;39.436;-77.514;2023-06-26T01:28:59;98715.55;;;25.40;46.73
80693;BME280;70055;39.436;-77.514;2023-06-26T01:31:29;98708.73;;;25.05;47.26
80693;BME280;70055;39.436;-77.514;2023-06-26T01:33:58;98703.85;;;25.42;47.58
80693;BME280;70055;39.436;-77.514;2023-06-26T01:36:28;98698.86;;;25.35;48.64
80693;BME280;70055;39.436;-77.514;2023-06-26T01:38:56;98702.17;;;25.04;48.95
80693;BME280;70055;39.436;-77.514;2023-06-26T01:41:24;98703.23;;;25.53;48.30
80693;BME280;70055;39.436;-77.514;2023-06-26T01:44:04;98708.15;;;25.15;49.10
80693;BME280;70055;39.436;-77.514;2023-06-26T01:46:40;98709.36;;;24.83;49.00
80693;BME280;70055;39.436;-77.514;2023-06-26T01:49:19;98706.08;;;25.30;48.77
80693;BME280;70055;39.436;-77.514;2023-06-26T01:51:58;98708.75;;;24.92;49.42
80693;BME280;70055;39.436;-77.514;2023-06-26T01:54:33;98716.59;;;24.27;50.31
80693;BME280;70055;39.436;-77.514;2023-06-26T01:57:06;98721.10;;;24.42;50.28
80693;BME280;70055;39.436;-77.514;2023-06-26T01:59:37;98714.67;;;24.63;49.72
80693;BME280;70055;39.436;-77.514;2023-06-26T02:02:07;98710.44;;;24.63;50.53
80693;BME280;70055;39.436;-77.514;2023-06-26T02:04:36;98708.96;;;24.17;51.37
80693;BME280;70055;39.436;-77.514;2023-06-26T02:07:04;98707.71;;;23.78;51.53
80693;BME280;70055;39.436;-77.514;2023-06-26T02:48:10;98727.33;;;23.67;53.59
80693;BME280;70055;39.436;-77.514;2023-06-26T02:50:38;98727.82;;;20.49;56.65
80693;BME280;70055;39.436;-77.514;2023-06-26T02:53:06;98723.28;;;20.62;55.95
80693;BME280;70055;39.436;-77.514;2023-06-26T02:55:35;98717.16;;;22.63;51.69
80693;BME280;70055;39.436;-77.514;2023-06-26T02:58:02;98714.55;;;22.78;50.86
80693;BME280;70055;39.436;-77.514;2023-06-26T03:00:29;98711.63;;;23.93;49.69
80693;BME280;70055;39.436;-77.514;2023-06-26T03:02:58;98712.57;;;23.56;50.79
80693;BME280;70055;39.436;-77.514;2023-06-26T03:05:26;98716.62;;;23.84;50.07
80693;BME280;70055;39.436;-77.514;2023-06-26T03:07:55;98714.22;;;23.58;52.05
80693;BME280;70055;39.436;-77.514;2023-06-26T03:10:23;98716.23;;;22.27;56.34
80693;BME280;70055;39.436;-77.514;2023-06-26T03:12:51;98714.20;;;23.59;52.40
80693;BME280;70055;39.436;-77.514;2023-06-26T03:15:19;98709.65;;;23.98;52.16
80693;BME280;70055;39.436;-77.514;2023-06-26T03:17:47;98704.07;;;23.83;52.22
80693;BME280;70055;39.436;-77.514;2023-06-26T03:20:15;98703.99;;;23.52;50.86
80693;BME280;70055;39.436;-77.514;2023-06-26T03:22:43;98704.23;;;24.00;50.56
80693;BME280;70055;39.436;-77.514;2023-06-26T03:25:12;98706.76;;;24.00;51.09
80693;BME280;70055;39.436;-77.514;2023-06-26T03:27:40;98709.86;;;22.33;55.71
80693;BME280;70055;39.436;-77.514;2023-06-26T03:30:09;98707.61;;;22.43;56.09
80693;BME280;70055;39.436;-77.514;2023-06-26T03:32:37;98709.53;;;23.48;54.21
80693;BME280;70055;39.436;-77.514;2023-06-26T03:35:05;98705.83;;;23.86;53.19
80693;BME280;70055;39.436;-77.514;2023-06-26T03:37:33;98700.71;;;23.51;53.88
80693;BME280;70055;39.436;-77.514;2023-06-26T03:40:02;98700.71;;;22.72;55.22
80693;BME280;70055;39.436;-77.514;2023-06-26T03:42:29;98699.16;;;23.22;54.01
80693;BME280;70055;39.436;-77.514;2023-06-26T03:44:57;98698.69;;;23.31;53.72
80693;BME280;70055;39.436;-77.514;2023-06-26T03:47:25;98699.35;;;23.59;52.92
80693;BME280;70055;39.436;-77.514;2023-06-26T04:10:20;98666.84;;;24.09;53.59
80693;BME280;70055;39.436;-77.514;2023-06-26T04:12:48;98647.61;;;22.08;53.66
80693;BME280;70055;39.436;-77.514;2023-06-26T04:15:15;98643.89;;;21.23;55.25
80693;BME280;70055;39.436;-77.514;2023-06-26T04:17:44;98650.68;;;22.35;56.00
80693;BME280;70055;39.436;-77.514;2023-06-26T04:20:13;98648.25;;;23.20;53.57
80693;BME280;70055;39.436;-77.514;2023-06-26T04:22:41;98641.71;;;23.49;52.99
80693;BME280;70055;39.436;-77.514;2023-06-26T04:25:09;98639.88;;;23.77;52.69
80693;BME280;70055;39.436;-77.514;2023-06-26T04:27:36;98641.39;;;23.26;53.92
80693;BME280;70055;39.436;-77.514;2023-06-26T04:30:05;98634.97;;;22.43;56.26
80693;BME280;70055;39.436;-77.514;2023-06-26T04:32:34;98624.74;;;23.34;53.89
80693;BME280;70055;39.436;-77.514;2023-06-26T04:35:02;98617.90;;;23.22;53.55
80693;BME280;70055;39.436;-77.514;2023-06-26T04:37:30;98611.48;;;23.64;53.20
80693;BME280;70055;39.436;-77.514;2023-06-26T04:39:58;98609.43;;;23.00;53.74
80693;BME280;70055;39.436;-77.514;2023-06-26T04:42:26;98604.62;;;23.40;53.67
80693;BME280;70055;39.436;-77.514;2023-06-26T04:44:54;98602.03;;;23.81;51.87
80693;BME280;70055;39.436;-77.514;2023-06-26T04:47:22;98601.35;;;24.05;51.40
80693;BME280;70055;39.436;-77.514;2023-06-26T04:49:50;98601.45;;;24.56;50.70
80693;BME280;70055;39.436;-77.514;2023-06-26T04:52:18;98595.83;;;23.27;52.95
80693;BME280;70055;39.436;-77.514;2023-06-26T04:54:46;98594.12;;;24.45;51.28
80693;BME280;70055;39.436;-77.514;2023-06-26T04:57:14;98596.45;;;23.59;52.11
80693;BME280;70055;39.436;-77.514;2023-06-26T04:59:42;98602.09;;;24.35;50.99
80693;BME280;70055;39.436;-77.514;2023-06-26T05:02:10;98599.13;;;24.51;50.23
80693;BME280;70055;39.436;-77.514;2023-06-26T05:04:38;98597.32;;;23.88;51.50
80693;BME280;70055;39.436;-77.514;2023-06-26T05:07:06;98595.77;;;23.67;51.04
80693;BME280;70055;39.436;-77.514;2023-06-26T05:25:26;98568.47;;;24.40;51.36
80693;BME280;70055;39.436;-77.514;2023-06-26T05:27:54;98553.53;;;22.07;53.14
80693;BME280;70055;39.436;-77.514;2023-06-26T05:30:23;98558.73;;;23.94;50.78
80693;BME280;70055;39.436;-77.514;2023-06-26T05:32:53;98561.23;;;23.97;51.17
80693;BME280;70055;39.436;-77.514;2023-06-26T05:35:22;98558.87;;;24.61;50.19
80693;BME280;70055;39.436;-77.514;2023-06-26T05:37:51;98554.69;;;24.41;50.87
80693;BME280;70055;39.436;-77.514;2023-06-26T05:40:20;98556.05;;;24.01;51.16
80693;BME280;70055;39.436;-77.514;2023-06-26T05:42:49;98555.99;;;24.45;50.96
80693;BME280;70055;39.436;-77.514;2023-06-26T05:45:17;98554.20;;;23.90;51.06
80693;BME280;70055;39.436;-77.514;2023-06-26T05:47:44;98551.49;;;23.87;52.10
80693;BME280;70055;39.436;-77.514;2023-06-26T05:50:14;98551.39;;;23.32;52.98
80693;BME280;70055;39.436;-77.514;2023-06-26T05:52:43;98553.26;;;24.11;51.42
80693;BME280;70055;39.436;-77.514;2023-06-26T05:55:13;98552.40;;;24.44;51.08
80693;BME280;70055;39.436;-77.514;2023-06-26T05:57:41;98547.08;;;23.42;53.31
80693;BME280;70055;39.436;-77.514;2023-06-26T06:00:10;98537.55;;;23.78;52.61
80693;BME280;70055;39.436;-77.514;2023-06-26T06:02:39;98524.47;;;23.37;53.64
80693;BME280;70055;39.436;-77.514;2023-06-26T06:05:07;98516.59;;;23.14;54.09
80693;BME280;70055;39.436;-77.514;2023-06-26T06:07:36;98523.73;;;23.05;54.38
80693;BME280;70055;39.436;-77.514;2023-06-26T06:10:05;98533.69;;;23.80;53.54
80693;BME280;70055;39.436;-77.514;2023-06-26T06:12:33;98540.47;;;23.40;53.99
80693;BME280;70055;39.436;-77.514;2023-06-26T06:15:01;98535.48;;;23.04;54.69
80693;BME280;70055;39.436;-77.514;2023-06-26T06:17:29;98530.51;;;23.21;54.45
80693;BME280;70055;39.436;-77.514;2023-06-26T06:19:56;98533.87;;;23.28;54.53
80693;BME280;70055;39.436;-77.514;2023-06-26T06:22:24;98530.75;;;23.62;54.99
80693;BME280;70055;39.436;-77.514;2023-06-26T06:29:25;98519.78;;;23.72;54.91
80693;BME280;70055;39.436;-77.514;2023-06-26T06:31:54;98519.26;;;23.17;54.65
80693;BME280;70055;39.436;-77.514;2023-06-26T06:34:21;98517.59;;;23.18;54.88
80693;BME280;70055;39.436;-77.514;2023-06-26T06:36:49;98524.14;;;23.31;56.16
80693;BME280;70055;39.436;-77.514;2023-06-26T06:39:17;98525.04;;;23.30;55.61
80693;BME280;70055;39.436;-77.514;2023-06-26T06:41:44;98523.96;;;23.03;56.39
80693;BME280;70055;39.436;-77.514;2023-06-26T06:44:12;98521.87;;;22.73;57.22
80693;BME280;70055;39.436;-77.514;2023-06-26T06:46:40;98512.77;;;23.54;56.54
80693;BME280;70055;39.436;-77.514;2023-06-26T06:49:08;98512.06;;;23.57;55.67
80693;BME280;70055;39.436;-77.514;2023-06-26T06:51:38;98510.21;;;23.82;55.23
80693;BME280;70055;39.436;-77.514;2023-06-26T06:54:06;98506.66;;;23.57;55.76
80693;BME280;70055;39.436;-77.514;2023-06-26T06:56:34;98509.36;;;23.93;54.92
80693;BME280;70055;39.436;-77.514;2023-06-26T06:59:01;98512.70;;;23.23;56.16
80693;BME280;70055;39.436;-77.514;2023-06-26T07:01:29;98515.93;;;22.23;59.04
80693;BME280;70055;39.436;-77.514;2023-06-26T07:03:57;98515.45;;;23.77;55.80
80693;BME280;70055;39.436;-77.514;2023-06-26T07:06:25;98518.64;;;23.06;56.81
80693;BME280;70055;39.436;-77.514;2023-06-26T07:08:53;98522.62;;;24.34;54.80
80693;BME280;70055;39.436;-77.514;2023-06-26T07:11:21;98520.89;;;23.88;55.68
80693;BME280;70055;39.436;-77.514;2023-06-26T07:13:49;98516.13;;;23.68;55.49
80693;BME280;70055;39.436;-77.514;2023-06-26T07:16:16;98517.50;;;23.58;55.81
80693;BME280;70055;39.436;-77.514;2023-06-26T07:18:44;98516.06;;;23.55;55.87
80693;BME280;70055;39.436;-77.514;2023-06-26T07:21:12;98514.80;;;23.26;56.67
80693;BME280;70055;39.436;-77.514;2023-06-26T07:23:40;98521.86;;;23.31;56.58
80693;BME280;70055;39.436;-77.514;2023-06-26T07:26:08;98529.98;;;23.79;55.44
80693;BME280;70055;39.436;-77.514;2023-06-26T07:37:46;98523.63;;;23.88;56.56
80693;BME280;70055;39.436;-77.514;2023-06-26T07:40:14;98525.42;;;22.54;55.44
80693;BME280;70055;39.436;-77.514;2023-06-26T07:42:42;98523.18;;;24.10;54.01
80693;BME280;70055;39.436;-77.514;2023-06-26T07:45:10;98520.30;;;24.06;54.01
80693;BME280;70055;39.436;-77.514;2023-06-26T07:47:39;98519.57;;;23.31;56.43
80693;BME280;70055;39.436;-77.514;2023-06-26T07:50:07;98521.27;;;23.59;55.14
80693;BME280;70055;39.436;-77.514;2023-06-26T07:52:35;98523.12;;;23.92;54.32
80693;BME280;70055;39.436;-77.514;2023-06-26T07:55:03;98521.25;;;23.95;55.34
80693;BME280;70055;39.436;-77.514;2023-06-26T07:57:32;98523.43;;;24.20;54.27
80693;BME280;70055;39.436;-77.514;2023-06-26T08:00:00;98521.85;;;24.23;54.02
80693;BME280;70055;39.436;-77.514;2023-06-26T08:02:28;98518.40;;;24.55;54.05
80693;BME280;70055;39.436;-77.514;2023-06-26T08:04:56;98515.32;;;23.92;54.24
80693;BME280;70055;39.436;-77.514;2023-06-26T08:07:24;98515.85;;;23.62;54.82
80693;BME280;70055;39.436;-77.514;2023-06-26T08:09:53;98516.86;;;23.75;55.11
80693;BME280;70055;39.436;-77.514;2023-06-26T08:12:21;98513.32;;;23.16;57.13
80693;BME280;70055;39.436;-77.514;2023-06-26T08:14:48;98512.66;;;23.62;56.00
80693;BME280;70055;39.436;-77.514;2023-06-26T08:17:16;98507.90;;;24.10;54.77
80693;BME280;70055;39.436;-77.514;2023-06-26T08:19:44;98503.38;;;23.21;56.43
80693;BME280;70055;39.436;-77.514;2023-06-26T08:22:11;98499.85;;;23.84;55.38
80693;BME280;70055;39.436;-77.514;2023-06-26T08:24:39;98499.41;;;23.87;55.17
80693;BME280;70055;39.436;-77.514;2023-06-26T08:27:07;98490.83;;;23.47;56.04
80693;BME280;70055;39.436;-77.514;2023-06-26T08:29:35;98483.69;;;23.70;55.30
80693;BME280;70055;39.436;-77.514;2023-06-26T08:32:03;98468.00;;;23.48;55.43
80693;BME280;70055;39.436;-77.514;2023-06-26T08:34:32;98455.22;;;22.89;57.24
80693;BME280;70055;39.436;-77.514;2023-06-26T08:37:00;98448.90;;;22.86;57.58
80693;BME280;70055;39.436;-77.514;2023-06-26T09:20:22;98462.67;;;22.87;59.35
80693;BME280;70055;39.436;-77.514;2023-06-26T09:22:49;98454.07;;;20.92;58.29
80693;BME280;70055;39.436;-77.514;2023-06-26T09:25:17;98449.73;;;21.48;57.14
80693;BME280;70055;39.436;-77.514;2023-06-26T09:27:45;98441.17;;;20.65;58.18
80693;BME280;70055;39.436;-77.514;2023-06-26T09:30:17;98433.26;;;21.24;58.08
80693;BME280;70055;39.436;-77.514;2023-06-26T09:32:46;98429.98;;;22.96;56.66
80693;BME280;70055;39.436;-77.514;2023-06-26T09:35:14;98423.36;;;23.52;55.76
80693;BME280;70055;39.436;-77.514;2023-06-26T09:37:43;98420.08;;;23.34;57.15
80693;BME280;70055;39.436;-77.514;2023-06-26T09:40:13;98419.91;;;22.51;58.28
80693;BME280;70055;39.436;-77.514;2023-06-26T09:42:41;98420.41;;;22.52;58.45
80693;BME280;70055;39.436;-77.514;2023-06-26T09:45:18;98424.03;;;23.00;57.45
80693;BME280;70055;39.436;-77.514;2023-06-26T09:47:46;98426.60;;;23.24;57.60
80693;BME280;70055;39.436;-77.514;2023-06-26T09:50:23;98431.77;;;22.54;59.53
80693;BME280;70055;39.436;-77.514;2023-06-26T09:52:51;98441.06;;;22.36;59.87
80693;BME280;70055;39.436;-77.514;2023-06-26T09:55:21;98439.12;;;22.48;59.53
80693;BME280;70055;39.436;-77.514;2023-06-26T09:57:50;98435.24;;;23.24;58.35
80693;BME280;70055;39.436;-77.514;2023-06-26T10:00:19;98430.65;;;21.83;60.75
80693;BME280;70055;39.436;-77.514;2023-06-26T10:02:48;98427.87;;;22.72;59.11
80693;BME280;70055;39.436;-77.514;2023-06-26T10:05:16;98429.58;;;22.09;61.07
80693;BME280;70055;39.436;-77.514;2023-06-26T10:07:45;98437.65;;;22.92;58.42
80693;BME280;70055;39.436;-77.514;2023-06-26T10:10:15;98450.41;;;23.45;57.34
80693;BME280;70055;39.436;-77.514;2023-06-26T10:12:48;98457.02;;;22.35;57.37
80693;BME280;70055;39.436;-77.514;2023-06-26T10:15:18;98462.61;;;21.59;59.99
80693;BME280;70055;39.436;-77.514;2023-06-26T10:17:49;98461.24;;;22.46;57.52
80693;BME280;70055;39.436;-77.514;2023-06-26T10:30:37;98465.60;;;22.95;58.96
80693;BME280;70055;39.436;-77.514;2023-06-26T10:33:06;98476.88;;;21.07;59.55
80693;BME280;70055;39.436;-77.514;2023-06-26T10:35:42;98475.89;;;22.91;58.31
80693;BME280;70055;39.436;-77.514;2023-06-26T10:38:10;98474.25;;;23.15;57.59
80693;BME280;70055;39.436;-77.514;2023-06-26T10:40:41;98476.02;;;22.83;57.65
80693;BME280;70055;39.436;-77.514;2023-06-26T10:43:12;98484.86;;;22.78;58.13
80693;BME280;70055;39.436;-77.514;2023-06-26T10:45:47;98497.15;;;22.88;57.47
80693;BME280;70055;39.436;-77.514;2023-06-26T10:48:17;98503.18;;;23.27;57.03
80693;BME280;70055;39.436;-77.514;2023-06-26T10:50:49;98511.82;;;23.29;56.75
80693;BME280;70055;39.436;-77.514;2023-06-26T10:53:23;98519.79;;;23.06;57.06
80693;BME280;70055;39.436;-77.514;2023-06-26T10:55:56;98513.88;;;23.19;56.90
80693;BME280;70055;39.436;-77.514;2023-06-26T10:58:30;98512.36;;;22.75;58.17
80693;BME280;70055;39.436;-77.514;2023-06-26T11:01:41;98514.35;;;23.08;56.85
80693;BME280;70055;39.436;-77.514;2023-06-26T11:04:09;98516.88;;;23.30;56.43
80693;BME280;70055;39.436;-77.514;2023-06-26T11:06:40;98517.89;;;23.00;57.51
80693;BME280;70055;39.436;-77.514;2023-06-26T11:09:10;98521.94;;;23.40;56.77
80693;BME280;70055;39.436;-77.514;2023-06-26T11:12:05;98524.84;;;23.57;56.77
80693;BME280;70055;39.436;-77.514;2023-06-26T11:14:33;98530.94;;;23.46;57.02
80693;BME280;70055;39.436;-77.514;2023-06-26T11:17:04;98534.30;;;23.42;56.54
80693;BME280;70055;39.436;-77.514;2023-06-26T11:19:32;98540.02;;;23.84;56.33
80693;BME280;70055;39.436;-77.514;2023-06-26T11:22:02;98539.15;;;23.40;57.12
80693;BME280;70055;39.436;-77.514;2023-06-26T11:24:31;98535.05;;;23.47;57.70
80693;BME280;70055;39.436;-77.514;2023-06-26T11:27:04;98530.16;;;24.04;56.51
80693;BME280;70055;39.436;-77.514;2023-06-26T11:29:33;98530.83;;;24.16;56.87
80693;BME280;70055;39.436;-77.514;2023-06-26T11:52:25;98508.01;;;23.96;58.98
80693;BME280;70055;39.436;-77.514;2023-06-26T11:54:52;98517.96;;;23.67;53.71
80693;BME280;70055;39.436;-77.514;2023-06-26T11:57:20;98519.27;;;24.58;51.46
80693;BME280;70055;39.436;-77.514;2023-06-26T11:59:50;98521.38;;;25.18;54.48
80693;BME280;70055;39.436;-77.514;2023-06-26T12:02:20;98521.78;;;24.08;55.80
80693;BME280;70055;39.436;-77.514;2023-06-26T12:04:48;98516.28;;;24.94;53.71
80693;BME280;70055;39.436;-77.514;2023-06-26T12:07:17;98518.58;;;24.46;54.05
80693;BME280;70055;39.436;-77.514;2023-06-26T12:09:46;98505.83;;;25.81;51.64
80693;BME280;70055;39.436;-77.514;2023-06-26T12:12:17;98506.27;;;24.24;55.27
80693;BME280;70055;39.436;-77.514;2023-06-26T12:14:45;98514.66;;;22.36;60.97
80693;BME280;70055;39.436;-77.514;2023-06-26T12:17:14;98512.20;;;23.27;56.93
80693;BME280;70055;39.436;-77.514;2023-06-26T12:19:44;98506.44;;;25.01;54.40
80693;BME280;70055;39.436;-77.514;2023-06-26T12:22:13;98514.73;;;25.22;53.48
80693;BME280;70055;39.436;-77.514;2023-06-26T12:24:42;98516.19;;;26.17;51.01
80693;BME280;70055;39.436;-77.514;2023-06-26T12:27:11;98511.66;;;26.30;50.49
80693;BME280;70055;39.436;-77.514;2023-06-26T12:29:41;98512.79;;;26.16;50.11
80693;BME280;70055;39.436;-77.514;2023-06-26T12:32:10;98515.05;;;25.77;52.11
80693;BME280;70055;39.436;-77.514;2023-06-26T12:34:39;98514.47;;;25.44;52.75
80693;BME280;70055;39.436;-77.514;2023-06-26T12:37:08;98514.45;;;25.41;52.70
80693;BME280;70055;39.436;-77.514;2023-06-26T12:39:53;98514.78;;;26.87;48.99
80693;BME280;70055;39.436;-77.514;2023-06-26T12:42:23;98521.88;;;26.50;49.09
80693;BME280;70055;39.436;-77.514;2023-06-26T12:44:52;98528.52;;;26.52;49.61
80693;BME280;70055;39.436;-77.514;2023-06-26T12:47:26;98520.55;;;27.98;46.52
80693;BME280;70055;39.436;-77.514;2023-06-26T12:49:55;98518.80;;;27.71;48.03
80693;BME280;70055;39.436;-77.514;2023-06-26T13:24:37;98502.65;;;31.53;36.08
80693;BME280;70055;39.436;-77.514;2023-06-26T13:27:05;98495.15;;;30.02;35.97
80693;BME280;70055;39.436;-77.514;2023-06-26T13:29:32;98497.07;;;31.04;33.81
80693;BME280;70055;39.436;-77.514;2023-06-26T13:31:59;98500.35;;;30.39;35.17
80693;BME280;70055;39.436;-77.514;2023-06-26T13:34:28;98509.05;;;32.43;32.79
80693;BME280;70055;39.436;-77.514;2023-06-26T13:36:57;98514.74;;;31.90;35.46
80693;BME280;70055;39.436;-77.514;2023-06-26T13:39:25;98517.52;;;31.23;34.91
80693;BME280;70055;39.436;-77.514;2023-06-26T13:41:53;98523.70;;;30.92;35.44
80693;BME280;70055;39.436;-77.514;2023-06-26T13:44:21;98518.98;;;30.45;36.86
80693;BME280;70055;39.436;-77.514;2023-06-26T13:46:48;98514.76;;;31.50;35.77
80693;BME280;70055;39.436;-77.514;2023-06-26T13:49:16;98512.07;;;31.24;36.07
80693;BME280;70055;39.436;-77.514;2023-06-26T13:51:44;98510.11;;;31.40;36.18
80693;BME280;70055;39.436;-77.514;2023-06-26T13:54:13;98508.58;;;32.11;35.87
80693;BME280;70055;39.436;-77.514;2023-06-26T13:56:41;98499.98;;;30.73;37.67
80693;BME280;70055;39.436;-77.514;2023-06-26T13:59:09;98498.63;;;32.40;36.93
80693;BME280;70055;39.436;-77.514;2023-06-26T14:01:37;98494.36;;;30.73;38.88
80693;BME280;70055;39.436;-77.514;2023-06-26T14:04:06;98487.45;;;30.39;38.92
80693;BME280;70055;39.436;-77.514;2023-06-26T14:06:34;98487.90;;;30.64;39.00
80693;BME280;70055;39.436;-77.514;2023-06-26T14:09:04;98487.98;;;31.53;37.13
80693;BME280;70055;39.436;-77.514;2023-06-26T14:11:32;98486.08;;;32.29;34.53
80693;BME280;70055;39.436;-77.514;2023-06-26T14:13:59;98486.97;;;32.72;34.81
80693;BME280;70055;39.436;-77.514;2023-06-26T14:16:28;98489.60;;;32.55;35.10
80693;BME280;70055;39.436;-77.514;2023-06-26T14:18:57;98490.02;;;31.44;36.69
80693;BME280;70055;39.436;-77.514;2023-06-26T14:21:25;98486.55;;;32.41;35.20
80693;BME280;70055;39.436;-77.514;2023-06-26T14:23:55;98484.37;;;31.73;35.51
80693;BME280;70055;39.436;-77.514;2023-06-26T14:40:41;98453.39;;;32.45;35.06
80693;BME280;70055;39.436;-77.514;2023-06-26T14:43:09;98448.74;;;29.71;34.26
80693;BME280;70055;39.436;-77.514;2023-06-26T14:45:38;98449.35;;;33.24;32.18
80693;BME280;70055;39.436;-77.514;2023-06-26T14:48:06;98451.21;;;33.82;31.23
80693;BME280;70055;39.436;-77.514;2023-06-26T14:50:34;98454.54;;;32.56;31.85
80693;BME280;70055;39.436;-77.514;2023-06-26T14:53:03;98454.00;;;32.26;31.90
80693;BME280;70055;39.436;-77.514;2023-06-26T14:55:31;98453.00;;;33.34;30.44
80693;BME280;70055;39.436;-77.514;2023-06-26T14:57:59;98458.92;;;33.19;30.82
80693;BME280;70055;39.436;-77.514;2023-06-26T15:00:28;98455.21;;;34.38;29.77
80693;BME280;70055;39.436;-77.514;2023-06-26T15:02:56;98457.63;;;34.02;28.84
80693;BME280;70055;39.436;-77.514;2023-06-26T15:05:24;98456.96;;;34.06;31.70
80693;BME280;70055;39.436;-77.514;2023-06-26T15:07:52;98453.49;;;33.69;31.19
80693;BME280;70055;39.436;-77.514;2023-06-26T15:10:21;98450.31;;;33.79;31.26
80693;BME280;70055;39.436;-77.514;2023-06-26T15:12:50;98452.77;;;34.13;29.86
80693;BME280;70055;39.436;-77.514;2023-06-26T15:15:19;98457.37;;;33.56;31.49
80693;BME280;70055;39.436;-77.514;2023-06-26T15:17:47;98455.51;;;34.04;31.06
80693;BME280;70055;39.436;-77.514;2023-06-26T15:20:15;98460.92;;;33.68;31.59
80693;BME280;70055;39.436;-77.514;2023-06-26T15:22:44;98462.38;;;33.31;33.60
80693;BME280;70055;39.436;-77.514;2023-06-26T15:25:12;98456.99;;;33.55;30.57
80693;BME280;70055;39.436;-77.514;2023-06-26T15:27:40;98457.62;;;32.76;32.62
80693;BME280;70055;39.436;-77.514;2023-06-26T15:30:09;98456.89;;;32.96;32.15
80693;BME280;70055;39.436;-77.514;2023-06-26T15:32:38;98452.94;;;34.03;30.06
80693;BME280;70055;39.436;-77.514;2023-06-26T15:35:06;98452.89;;;33.71;30.61
80693;BME280;70055;39.436;-77.514;2023-06-26T15:37:36;98449.22;;;33.87;29.76
80693;BME280;70055;39.436;-77.514;2023-06-26T15:40:05;98452.05;;;33.01;29.40
80693;BME280;70055;39.436;-77.514;2023-06-26T16:03:02;98443.20;;;33.06;31.52
80693;BME280;70055;39.436;-77.514;2023-06-26T16:05:29;98442.89;;;29.25;35.53
80693;BME280;70055;39.436;-77.514;2023-06-26T16:07:57;98442.36;;;30.26;34.42
80693;BME280;70055;39.436;-77.514;2023-06-26T16:10:25;98443.93;;;31.92;34.63
80693;BME280;70055;39.436;-77.514;2023-06-26T16:12:54;98435.56;;;32.41;32.16
80693;BME280;70055;39.436;-77.514;2023-06-26T16:15:22;98434.36;;;31.43;35.05
80693;BME280;70055;39.436;-77.514;2023-06-26T16:17:51;98433.04;;;32.72;32.25
80693;BME280;70055;39.436;-77.514;2023-06-26T16:20:20;98433.13;;;31.81;34.64
80693;BME280;70055;39.436;-77.514;2023-06-26T16:22:47;98431.71;;;32.14;34.57
80693;BME280;70055;39.436;-77.514;2023-06-26T16:25:16;98432.32;;;32.40;32.03
80693;BME280;70055;39.436;-77.514;2023-06-26T16:27:44;98426.37;;;32.25;32.87
80693;BME280;70055;39.436;-77.514;2023-06-26T16:30:13;98425.32;;;32.52;32.40
80693;BME280;70055;39.436;-77.514;2023-06-26T16:32:40;98424.85;;;32.81;31.67
80693;BME280;70055;39.436;-77.514;2023-06-26T16:35:08;98424.26;;;33.45;31.28
80693;BME280;70055;39.436;-77.514;2023-06-26T16:37:37;98422.97;;;32.75;31.82
80693;BME280;70055;39.436;-77.514;2023-06-26T16:40:07;98421.74;;;31.97;32.21
80693;BME280;70055;39.436;-77.514;2023-06-26T16:42:35;98420.32;;;32.32;34.48